Time;durP1;ratioP1;P1;durP2;ratioP2;P2;SDS_P1;SDS_P2;PMS_P1;PMS_P2;Temp;Humidity;BMP_temperature;BMP_pressure;BME280_temperature;BME280_humidity;BME280_pressure;Samples;Min_cycle;Max_cycle;Signal;HPM_P1;HPM_P2
2023/12/01 00:01:40;;;;;;;24.33;10.65;;;;;;;-0.49;87.37;98926.44;4902496;29;20052;-80
2023/12/01 00:04:07;;;;;;;23.25;11.18;;;;;;;-0.54;87.43;98938.41;4929912;29;20059;-81
2023/12/01 00:06:34;;;;;;;21.38;10.38;;;;;;;-0.50;87.49;98950.47;4932453;29;20058;-81
2023/12/01 00:09:02;;;;;;;21.10;10.98;;;;;;;-0.48;87.66;98937.59;4908644;29;20495;-81
2023/12/01 00:11:28;;;;;;;18.27;9.55;;;;;;;-0.45;87.35;98929.88;4934049;29;20048;-81
2023/12/01 00:13:55;;;;;;;23.33;11.13;;;;;;;-0.50;87.84;98935.00;4907760;29;20048;-80
2023/12/01 00:16:22;;;;;;;23.77;11.13;;;;;;;-0.46;87.63;98953.94;4937007;29;20043;-81
2023/12/01 00:18:49;;;;;;;23.70;10.55;;;;;;;-0.44;87.42;98941.91;4931318;29;20390;-81
2023/12/01 00:21:15;;;;;;;22.35;10.00;;;;;;;-0.43;87.55;98952.22;4907225;29;20052;-80
2023/12/01 00:23:43;;;;;;;19.95;10.23;;;;;;;-0.48;87.46;98928.13;4915560;29;20497;-81
2023/12/01 00:26:09;;;;;;;21.70;10.07;;;;;;;-0.48;87.51;98948.75;4922295;29;20060;-81
2023/12/01 00:28:36;;;;;;;23.52;10.43;;;;;;;-0.44;87.67;98958.22;4915741;29;20139;-81
2023/12/01 00:31:03;;;;;;;20.10;8.88;;;;;;;-0.47;87.27;98947.06;4927893;29;20055;-81
2023/12/01 00:33:30;;;;;;;21.88;10.10;;;;;;;-0.48;87.09;98950.47;4912847;29;20062;-80
2023/12/01 00:35:57;;;;;;;20.65;9.23;;;;;;;-0.47;86.94;98947.06;4926209;29;20058;-81
2023/12/01 00:38:24;;;;;;;22.13;9.80;;;;;;;-0.50;86.92;98944.47;4918746;29;20057;-81
2023/12/01 00:40:50;;;;;;;20.63;10.20;;;;;;;-0.51;87.20;98959.06;4908647;29;20180;-81
2023/12/01 00:43:18;;;;;;;19.00;9.18;;;;;;;-0.48;86.94;98951.34;4919147;29;20058;-81
2023/12/01 00:45:45;;;;;;;18.38;9.18;;;;;;;-0.46;86.90;98943.63;4926627;29;20138;-81
2023/12/01 00:48:11;;;;;;;18.35;8.93;;;;;;;-0.47;87.29;98934.19;4910162;29;20052;-81
2023/12/01 00:50:39;;;;;;;18.17;8.93;;;;;;;-0.51;86.93;98938.44;4920437;29;20051;-81
2023/12/01 00:53:06;;;;;;;17.27;8.20;;;;;;;-0.45;86.33;98948.81;4916791;29;20059;-81
2023/12/01 00:55:33;;;;;;;19.92;9.40;;;;;;;-0.49;86.66;98941.91;4929898;29;20160;-81
2023/12/01 00:57:59;;;;;;;16.98;9.00;;;;;;;-0.50;86.75;98937.59;4929054;29;20139;-81
2023/12/01 01:00:26;;;;;;;21.73;9.93;;;;;;;-0.51;87.19;98938.44;4929515;29;20051;-81
2023/12/01 01:02:53;;;;;;;22.02;9.63;;;;;;;-0.55;87.34;98936.69;4920768;29;20060;-80
2023/12/01 01:05:20;;;;;;;18.02;8.82;;;;;;;-0.49;86.84;98947.06;4932981;29;20079;-81
2023/12/01 01:07:47;;;;;;;19.25;9.40;;;;;;;-0.52;86.89;98957.34;4918268;29;20505;-81
2023/12/01 01:10:14;;;;;;;21.33;9.43;;;;;;;-0.53;87.53;98961.63;4919742;29;20070;-81
2023/12/01 01:12:41;;;;;;;21.08;9.90;;;;;;;-0.47;87.53;98960.78;4933750;29;20049;-81
2023/12/01 01:15:08;;;;;;;19.27;9.43;;;;;;;-0.49;88.03;98965.09;4928700;29;20055;-81
2023/12/01 01:17:34;;;;;;;22.25;10.45;;;;;;;-0.49;88.35;98944.47;4917673;29;20051;-81
2023/12/01 01:20:02;;;;;;;21.02;9.95;;;;;;;-0.46;88.23;98935.91;4922432;29;20082;-81
2023/12/01 01:22:28;;;;;;;20.08;9.95;;;;;;;-0.43;88.46;98952.22;4935936;29;20051;-81
2023/12/01 01:24:55;;;;;;;22.30;10.30;;;;;;;-0.42;88.40;98947.94;4930720;29;20051;-81
2023/12/01 01:27:22;;;;;;;20.92;10.00;;;;;;;-0.42;88.45;98953.09;4925839;29;20047;-81
2023/12/01 01:29:49;;;;;;;22.52;10.07;;;;;;;-0.41;88.33;98949.66;4909648;29;20058;-81
2023/12/01 01:32:16;;;;;;;22.33;9.82;;;;;;;-0.43;88.65;98957.38;4927061;29;20066;-81
2023/12/01 01:34:42;;;;;;;19.70;10.32;;;;;;;-0.43;88.63;98969.44;4915588;29;20070;-81
2023/12/01 01:37:09;;;;;;;19.88;9.93;;;;;;;-0.39;88.47;98969.44;4926241;29;20420;-81
2023/12/01 01:39:36;;;;;;;21.50;10.07;;;;;;;-0.41;88.83;98971.13;4910165;29;20051;-81
2023/12/01 01:42:03;;;;;;;24.17;10.40;;;;;;;-0.39;88.78;98971.16;4921062;29;20052;-81
2023/12/01 01:44:30;;;;;;;23.73;10.65;;;;;;;-0.40;88.91;98972.88;4928683;29;20043;-81
2023/12/01 01:46:57;;;;;;;22.08;10.02;;;;;;;-0.41;89.01;98981.44;4922103;29;20052;-81
2023/12/01 01:49:27;;;;;;;22.80;9.65;;;;;;;-0.33;88.92;98988.38;4918204;29;20134;-80
2023/12/01 01:51:54;;;;;;;20.95;10.10;;;;;;;-0.34;88.84;99002.97;4900748;29;20062;-80
2023/12/01 01:54:25;;;;;;;22.58;10.18;;;;;;;-0.36;88.95;98999.53;4916796;29;20047;-80
2023/12/01 01:56:53;;;;;;;22.67;10.68;;;;;;;-0.30;89.08;99009.03;4917246;29;20114;-81
2023/12/01 01:59:20;;;;;;;18.73;9.50;;;;;;;-0.27;88.90;99024.50;4932051;29;20051;-81
2023/12/01 02:01:51;;;;;;;22.70;10.40;;;;;;;-0.25;88.86;99007.31;4934696;29;20110;-81
2023/12/01 02:04:18;;;;;;;22.05;10.65;;;;;;;-0.25;88.93;99009.91;4909754;29;20051;-81
2023/12/01 02:06:48;;;;;;;22.27;10.45;;;;;;;-0.24;89.06;99021.94;4911032;29;20054;-81
2023/12/01 02:09:15;;;;;;;21.17;10.68;;;;;;;-0.25;89.22;99012.47;4904154;29;20055;-80
2023/12/01 02:11:43;;;;;;;26.35;11.70;;;;;;;-0.22;89.34;98999.59;4912445;29;20115;-81
2023/12/01 02:14:10;;;;;;;25.63;11.95;;;;;;;-0.22;89.12;98979.84;4910349;29;20059;-80
2023/12/01 02:16:45;;;;;;;21.90;10.85;;;;;;;-0.23;89.27;98983.28;4924594;29;20058;-81
2023/12/01 02:19:13;;;;;;;24.55;11.15;;;;;;;-0.21;89.25;99003.91;4934250;29;20212;-81
2023/12/01 02:21:47;;;;;;;23.73;11.05;;;;;;;-0.21;89.23;99003.91;4941592;29;20102;-80
2023/12/01 02:24:14;;;;;;;20.98;10.73;;;;;;;-0.19;89.18;99002.19;4924552;29;20465;-81
2023/12/01 02:26:41;;;;;;;23.33;11.15;;;;;;;-0.21;89.23;99009.06;4928666;29;20131;-81
2023/12/01 02:29:08;;;;;;;27.58;11.68;;;;;;;-0.20;89.32;99000.50;4934386;29;20052;-82
2023/12/01 02:31:35;;;;;;;24.55;11.07;;;;;;;-0.22;89.22;99002.19;4928263;29;20064;-81
2023/12/01 02:34:03;;;;;;;20.70;11.27;;;;;;;-0.20;89.24;99013.38;4934402;29;20070;-81
2023/12/01 02:36:30;;;;;;;24.63;11.75;;;;;;;-0.21;89.18;99029.69;4932197;29;20052;-81
2023/12/01 02:38:57;;;;;;;25.20;11.82;;;;;;;-0.21;89.33;99016.81;4908348;29;20052;-81
2023/12/01 02:41:24;;;;;;;30.05;11.35;;;;;;;-0.22;89.27;99020.22;4930425;29;20058;-80
2023/12/01 02:43:53;;;;;;;22.75;11.20;;;;;;;-0.22;89.25;99022.81;4931204;29;20073;-80
2023/12/01 02:46:22;;;;;;;23.77;11.75;;;;;;;-0.23;89.35;99019.38;4928949;29;20051;-81
2023/12/01 02:48:50;;;;;;;28.88;12.63;;;;;;;-0.24;89.70;99019.38;4927561;29;20192;-81
2023/12/01 02:51:17;;;;;;;32.15;12.55;;;;;;;-0.25;89.72;99013.34;4931333;29;20054;-80
2023/12/01 02:53:44;;;;;;;30.52;12.43;;;;;;;-0.23;89.61;99018.53;4937462;29;20062;-80
2023/12/01 02:56:11;;;;;;;27.25;11.82;;;;;;;-0.24;89.88;99024.53;4903326;29;20521;-80
2023/12/01 02:58:38;;;;;;;27.83;11.88;;;;;;;-0.26;89.82;99015.91;4933733;29;20051;-81
2023/12/01 03:01:05;;;;;;;27.58;11.63;;;;;;;-0.25;90.00;99012.47;4932725;28;20119;-81
2023/12/01 03:03:32;;;;;;;31.50;13.00;;;;;;;-0.25;89.89;99017.63;4914359;29;20154;-81
2023/12/01 03:05:59;;;;;;;29.98;12.45;;;;;;;-0.26;90.06;99021.06;4933415;29;20051;-81
2023/12/01 03:08:26;;;;;;;28.20;12.27;;;;;;;-0.24;90.20;99015.06;4930605;29;20051;-81
2023/12/01 03:10:54;;;;;;;29.35;11.88;;;;;;;-0.24;90.17;99016.78;4916760;29;20050;-78
2023/12/01 03:13:22;;;;;;;26.17;11.80;;;;;;;-0.26;90.30;99006.47;4922869;29;20047;-81
2023/12/01 03:15:49;;;;;;;30.58;12.77;;;;;;;-0.27;90.25;98997.00;4928077;29;20069;-81
2023/12/01 03:18:19;;;;;;;32.10;12.18;;;;;;;-0.25;90.29;99012.47;4910638;29;20047;-81
2023/12/01 03:20:49;;;;;;;26.48;11.65;;;;;;;-0.22;90.27;99017.66;4924782;29;20051;-80
2023/12/01 03:23:16;;;;;;;25.52;11.45;;;;;;;-0.23;90.27;99008.22;4919588;29;20052;-80
2023/12/01 03:25:43;;;;;;;30.83;12.57;;;;;;;-0.23;90.39;99006.50;4932610;29;20496;-80
2023/12/01 03:28:09;;;;;;;29.52;13.00;;;;;;;-0.23;90.34;99005.63;4910341;29;20055;-80
2023/12/01 03:30:36;;;;;;;24.65;11.82;;;;;;;-0.23;90.43;99027.13;4930407;29;20047;-80
2023/12/01 03:33:03;;;;;;;30.95;12.38;;;;;;;-0.26;90.40;99016.78;4923317;29;20059;-81
2023/12/01 03:35:30;;;;;;;27.73;12.13;;;;;;;-0.25;90.27;99018.50;4934952;29;20477;-81
2023/12/01 03:37:57;;;;;;;35.00;13.02;;;;;;;-0.25;90.45;99012.47;4923804;29;20150;-81
2023/12/01 03:40:25;;;;;;;30.23;12.48;;;;;;;-0.24;90.57;99016.78;4929598;29;20071;-78
2023/12/01 03:42:52;;;;;;;28.95;11.98;;;;;;;-0.23;90.49;99031.41;4928257;29;20057;-81
2023/12/01 03:45:19;;;;;;;28.77;12.30;;;;;;;-0.23;90.48;99031.41;4921106;29;20147;-81
2023/12/01 03:47:47;;;;;;;36.33;13.82;;;;;;;-0.24;90.45;99019.38;4926861;29;20051;-81
2023/12/01 03:50:15;;;;;;;35.20;13.90;;;;;;;-0.23;90.43;99021.97;4925131;29;20055;-82
2023/12/01 03:52:47;;;;;;;38.58;11.88;;;;;;;-0.23;90.47;99018.53;4927663;29;20051;-81
2023/12/01 03:55:14;;;;;;;35.03;12.75;;;;;;;-0.23;90.55;99010.78;4926024;29;20055;-81
2023/12/01 03:57:43;;;;;;;34.15;12.68;;;;;;;-0.18;90.52;99019.41;4919688;29;20146;-82
2023/12/01 04:00:16;;;;;;;34.75;12.70;;;;;;;-0.19;90.46;99017.66;4903176;29;20047;-81
2023/12/01 04:02:46;;;;;;;35.35;12.85;;;;;;;-0.21;90.60;99019.38;4911321;29;20130;-81
2023/12/01 04:05:17;;;;;;;32.28;12.77;;;;;;;-0.21;90.48;99020.25;4905819;29;20066;-81
2023/12/01 04:07:51;;;;;;;39.65;14.45;;;;;;;-0.22;90.78;99012.50;4931693;29;20143;-81
2023/12/01 04:10:22;;;;;;;34.88;12.80;;;;;;;-0.22;90.57;99020.22;4915573;29;20054;-81
2023/12/01 04:12:49;;;;;;;37.40;13.40;;;;;;;-0.22;90.81;99021.13;4931290;29;20434;-80
2023/12/01 04:15:17;;;;;;;36.30;13.27;;;;;;;-0.20;90.88;99015.97;4903767;29;20135;-81
2023/12/01 04:17:46;;;;;;;33.38;13.20;;;;;;;-0.21;90.65;99014.22;4924093;29;20056;-81
2023/12/01 04:20:21;;;;;;;35.03;13.63;;;;;;;-0.20;90.83;99023.69;4926656;29;20055;-81
2023/12/01 04:22:50;;;;;;;40.97;13.70;;;;;;;-0.22;90.53;99020.22;4928377;29;20047;-80
2023/12/01 04:25:16;;;;;;;38.17;13.23;;;;;;;-0.20;90.64;99016.81;4928738;29;20058;-80
2023/12/01 04:27:47;;;;;;;34.13;12.65;;;;;;;-0.19;90.50;99017.66;4933841;29;20140;-81
2023/12/01 04:30:15;;;;;;;32.00;12.63;;;;;;;-0.18;90.28;99003.94;4929362;29;20063;-81
2023/12/01 04:32:45;;;;;;;31.73;13.02;;;;;;;-0.19;90.38;98999.63;4930794;29;20142;-81
2023/12/01 04:35:12;;;;;;;33.42;13.77;;;;;;;-0.21;90.35;99003.91;4905754;29;20055;-81
2023/12/01 04:37:41;;;;;;;38.90;14.73;;;;;;;-0.21;90.39;98998.75;4936669;29;20058;-80
2023/12/01 04:40:14;;;;;;;33.65;13.27;;;;;;;-0.17;90.50;98990.19;4910666;29;20071;-81
2023/12/01 04:42:46;;;;;;;35.88;14.05;;;;;;;-0.24;90.31;98997.03;4929996;29;20126;-81
2023/12/01 04:45:15;;;;;;;38.47;14.13;;;;;;;-0.20;90.58;98993.59;4932713;29;20134;-81
2023/12/01 04:47:43;;;;;;;36.03;13.30;;;;;;;-0.21;90.50;98998.75;4924644;29;20052;-81
2023/12/01 04:50:12;;;;;;;30.67;12.85;;;;;;;-0.19;90.44;99004.78;4917336;29;20510;-80
2023/12/01 04:52:44;;;;;;;30.92;12.63;;;;;;;-0.23;90.32;99000.47;4927693;29;20057;-80
2023/12/01 04:55:15;;;;;;;29.00;12.48;;;;;;;-0.21;90.37;98998.75;4919723;29;20051;-81
2023/12/01 04:57:43;;;;;;;31.13;12.75;;;;;;;-0.23;90.17;99011.66;4942214;29;20051;-81
2023/12/01 05:00:20;;;;;;;28.38;12.00;;;;;;;-0.22;90.25;99012.50;4910048;29;20046;-80
2023/12/01 05:03:02;;;;;;;31.08;12.55;;;;;;;-0.18;89.91;99009.09;4931052;29;20055;-81
2023/12/01 05:05:31;;;;;;;32.85;13.02;;;;;;;-0.16;89.82;99020.25;4924954;29;20117;-81
2023/12/01 05:07:59;;;;;;;31.27;12.43;;;;;;;-0.14;89.47;99010.84;4920388;29;20086;-81
2023/12/01 05:10:32;;;;;;;36.10;13.60;;;;;;;-0.17;90.00;99010.81;4908326;29;20109;-81
2023/12/01 05:13:04;;;;;;;32.15;12.77;;;;;;;-0.15;89.76;99019.41;4918354;29;20060;-80
2023/12/01 05:15:33;;;;;;;28.25;12.23;;;;;;;-0.14;89.82;99023.72;4918780;29;20063;-81
2023/12/01 05:18:04;;;;;;;29.00;11.80;;;;;;;-0.19;89.90;99028.88;4907907;29;20155;-79
2023/12/01 05:20:32;;;;;;;34.30;12.75;;;;;;;-0.14;89.84;99038.34;4923984;29;20388;-81
2023/12/01 05:23:01;;;;;;;29.92;12.00;;;;;;;-0.14;89.69;99049.50;4901244;29;20088;-79
2023/12/01 05:25:32;;;;;;;31.52;13.00;;;;;;;-0.14;89.97;99057.25;4930498;29;20053;-79
2023/12/01 05:28:02;;;;;;;31.95;12.27;;;;;;;-0.14;89.53;99057.25;4920160;29;20051;-81
2023/12/01 05:30:34;;;;;;;32.75;12.65;;;;;;;-0.19;89.41;99053.78;4931003;29;20055;-80
2023/12/01 05:33:02;;;;;;;34.42;13.55;;;;;;;-0.16;89.72;99053.78;4910696;29;20495;-80
2023/12/01 05:35:29;;;;;;;30.08;12.88;;;;;;;-0.18;89.45;99042.59;4928795;29;20048;-81
2023/12/01 05:37:56;;;;;;;30.00;11.98;;;;;;;-0.13;89.47;99051.25;4907773;29;20044;-81
2023/12/01 05:40:35;;;;;;;29.10;11.82;;;;;;;-0.16;89.32;99056.38;4935183;29;20047;-81
2023/12/01 05:43:06;;;;;;;29.25;11.68;;;;;;;-0.16;89.43;99064.09;4906205;29;20079;-79
2023/12/01 05:45:35;;;;;;;31.38;12.13;;;;;;;-0.13;89.39;99060.69;4918738;29;20047;-81
2023/12/01 05:48:06;;;;;;;32.30;13.32;;;;;;;-0.11;89.31;99064.16;4928327;29;20059;-81
2023/12/01 05:50:35;;;;;;;30.80;12.43;;;;;;;-0.16;89.26;99069.25;4910327;29;20067;-80
2023/12/01 05:53:08;;;;;;;25.77;11.27;;;;;;;-0.13;89.05;99081.31;4907612;29;20051;-81
2023/12/01 05:55:38;;;;;;;29.13;13.00;;;;;;;-0.15;89.03;99083.88;4921869;29;20051;-81
2023/12/01 05:58:10;;;;;;;26.73;11.80;;;;;;;-0.14;89.15;99088.19;4921508;29;20051;-80
2023/12/01 06:00:38;;;;;;;27.23;12.25;;;;;;;-0.16;88.85;99100.19;4931484;29;20055;-81
2023/12/01 06:03:06;;;;;;;26.58;11.48;;;;;;;-0.15;88.59;99109.66;4933830;29;20126;-81
2023/12/01 06:05:34;;;;;;;25.83;10.52;;;;;;;-0.16;88.44;99102.78;4929841;29;20110;-79
2023/12/01 06:08:02;;;;;;;27.10;11.40;;;;;;;-0.12;88.47;99108.84;4926868;29;20059;-79
2023/12/01 06:10:31;;;;;;;22.85;9.82;;;;;;;-0.16;88.13;99105.34;4938283;29;20043;-80
2023/12/01 06:12:59;;;;;;;22.30;9.65;;;;;;;-0.13;88.13;99102.81;4926329;29;20507;-80
2023/12/01 06:15:29;;;;;;;19.65;8.93;;;;;;;-0.15;87.89;99096.78;4937646;29;20053;-80
2023/12/01 06:17:58;;;;;;;19.90;9.38;;;;;;;-0.15;87.62;99086.47;4927528;29;20043;-80
2023/12/01 06:20:25;;;;;;;18.52;8.00;;;;;;;-0.14;87.50;99092.50;4928231;29;20063;-78
2023/12/01 06:22:56;;;;;;;19.95;9.35;;;;;;;-0.16;87.42;99084.72;4940170;29;20048;-80
2023/12/01 06:25:27;;;;;;;18.45;8.98;;;;;;;-0.17;87.34;99103.66;4925883;29;20055;-80
2023/12/01 06:27:58;;;;;;;16.48;8.25;;;;;;;-0.17;87.43;99101.06;4922885;29;20051;-78
2023/12/01 06:30:28;;;;;;;19.17;8.13;;;;;;;-0.18;87.36;99107.06;4927368;29;20051;-79
2023/12/01 06:32:55;;;;;;;17.83;8.60;;;;;;;-0.12;87.23;99114.84;4906822;29;20051;-79
2023/12/01 06:35:22;;;;;;;17.67;8.20;;;;;;;-0.13;87.35;99099.38;4926650;29;20571;-80
2023/12/01 06:37:49;;;;;;;17.80;8.88;;;;;;;-0.16;87.40;99095.03;4926137;29;20079;-80
2023/12/01 06:40:17;;;;;;;17.73;8.07;;;;;;;-0.12;87.32;99108.84;4909275;29;20051;-80
2023/12/01 06:42:46;;;;;;;17.05;8.35;;;;;;;-0.15;87.10;99125.16;4895620;29;20059;-80
2023/12/01 06:45:18;;;;;;;17.65;8.57;;;;;;;-0.16;87.14;99128.56;4910377;29;20786;-81
2023/12/01 06:47:48;;;;;;;17.48;7.97;;;;;;;-0.15;87.09;99132.88;4932937;29;20121;-81
2023/12/01 06:50:16;;;;;;;18.45;8.32;;;;;;;-0.12;87.10;99135.47;4925731;29;20058;-80
2023/12/01 06:52:45;;;;;;;15.60;7.18;;;;;;;-0.12;87.02;99130.31;4926788;29;20056;-80
2023/12/01 06:55:12;;;;;;;15.25;7.35;;;;;;;-0.16;86.94;99126.00;4926664;29;20062;-80
2023/12/01 06:57:49;;;;;;;15.90;7.72;;;;;;;-0.18;86.67;99119.97;4928232;29;20051;-81
2023/12/01 07:00:56;;;;;;;15.70;7.38;;;;;;;-0.18;86.42;99125.13;4940139;29;20043;-80
2023/12/01 07:03:11;;;;;;;15.38;6.80;;;;;;;-0.18;86.40;99130.28;4910877;29;20102;-80
2023/12/01 07:05:39;;;;;;;12.95;6.07;;;;;;;-0.20;86.08;99137.16;4924640;29;20071;-79
2023/12/01 07:08:14;;;;;;;12.18;5.97;;;;;;;-0.19;86.07;99137.16;4911019;29;20074;-78
2023/12/01 07:10:42;;;;;;;11.90;6.20;;;;;;;-0.19;85.69;99141.44;4935355;29;20121;-80
2023/12/01 07:13:10;;;;;;;12.50;6.57;;;;;;;-0.19;85.58;99146.59;4920770;29;20051;-80
2023/12/01 07:15:37;;;;;;;11.82;6.25;;;;;;;-0.19;85.66;99144.91;4930029;29;20051;-80
2023/12/01 07:18:05;;;;;;;13.80;5.97;;;;;;;-0.16;85.61;99146.63;4921717;29;20052;-80
2023/12/01 07:20:33;;;;;;;14.95;6.53;;;;;;;-0.18;85.45;99146.59;4911253;29;20107;-80
2023/12/01 07:23:00;;;;;;;11.55;5.55;;;;;;;-0.17;85.56;99142.34;4910596;29;20056;-81
2023/12/01 07:25:31;;;;;;;12.60;5.97;;;;;;;-0.16;85.44;99135.44;4914411;29;20057;-80
2023/12/01 07:27:59;;;;;;;10.40;5.70;;;;;;;-0.18;85.66;99138.88;4923149;29;20055;-80
2023/12/01 07:30:30;;;;;;;13.38;5.78;;;;;;;-0.19;85.36;99141.44;4923915;29;20095;-80
2023/12/01 07:32:59;;;;;;;11.35;5.30;;;;;;;-0.18;85.37;99149.19;4911088;29;20043;-79
2023/12/01 07:35:26;;;;;;;10.73;5.57;;;;;;;-0.12;85.54;99148.38;4913940;29;20048;-79
2023/12/01 07:37:53;;;;;;;12.05;5.78;;;;;;;-0.11;85.39;99144.09;4929220;29;20054;-80
2023/12/01 07:40:21;;;;;;;10.25;5.82;;;;;;;-0.16;85.04;99149.19;4890587;29;20051;-80
2023/12/01 07:42:50;;;;;;;11.90;5.80;;;;;;;-0.12;85.20;99158.69;4932348;29;20055;-81
2023/12/01 07:45:18;;;;;;;12.05;5.40;;;;;;;-0.14;85.02;99151.81;4929529;29;20051;-79
2023/12/01 07:47:50;;;;;;;8.45;5.22;;;;;;;-0.12;85.05;99155.25;4916134;29;20167;-80
2023/12/01 07:50:18;;;;;;;11.32;5.60;;;;;;;-0.13;85.00;99146.66;4897949;29;20489;-80
2023/12/01 07:52:51;;;;;;;10.00;5.20;;;;;;;-0.14;84.92;99160.41;4933198;29;20075;-80
2023/12/01 07:55:21;;;;;;;12.80;6.28;;;;;;;-0.12;85.15;99153.53;4929703;29;20129;-79
2023/12/01 07:57:48;;;;;;;11.27;5.70;;;;;;;-0.12;84.74;99166.44;4927942;29;20477;-80
2023/12/01 08:00:16;;;;;;;11.13;5.63;;;;;;;-0.12;84.60;99157.84;4930757;29;20043;-80
2023/12/01 08:02:43;;;;;;;10.40;6.10;;;;;;;-0.12;84.64;99153.53;4933743;29;20043;-79
2023/12/01 08:05:13;;;;;;;12.02;5.70;;;;;;;-0.12;84.69;99143.22;4887060;29;20062;-81
2023/12/01 08:07:46;;;;;;;10.77;5.97;;;;;;;-0.12;84.63;99150.09;4937270;29;20505;-80
2023/12/01 08:10:15;;;;;;;10.10;5.82;;;;;;;-0.13;84.25;99154.41;4924271;29;20078;-79
2023/12/01 08:12:47;;;;;;;9.05;4.60;;;;;;;-0.08;84.57;99150.13;4915750;29;20172;-79
2023/12/01 08:15:14;;;;;;;11.18;5.53;;;;;;;-0.06;84.83;99158.75;4901470;29;20173;-80
2023/12/01 08:17:43;;;;;;;12.50;6.00;;;;;;;-0.08;84.47;99165.59;4930256;29;20052;-80
2023/12/01 08:20:11;;;;;;;9.50;5.63;;;;;;;-0.07;83.95;99172.50;4937955;29;20051;-80
2023/12/01 08:22:38;;;;;;;11.18;5.88;;;;;;;-0.05;84.01;99175.09;4916927;29;20080;-80
2023/12/01 08:25:07;;;;;;;11.45;5.50;;;;;;;-0.04;83.91;99167.34;4934963;29;20055;-80
2023/12/01 08:27:33;;;;;;;12.15;5.85;;;;;;;-0.06;84.08;99157.88;4937981;29;20051;-81
2023/12/01 08:30:02;;;;;;;11.52;6.07;;;;;;;-0.04;84.21;99154.47;4923227;29;20055;-80
2023/12/01 08:32:29;;;;;;;15.00;6.13;;;;;;;-0.06;84.12;99158.75;4926888;29;20048;-80
2023/12/01 08:34:56;;;;;;;11.68;6.20;;;;;;;-0.04;84.01;99154.47;4922892;29;20071;-79
2023/12/01 08:37:23;;;;;;;11.98;5.65;;;;;;;-0.03;84.09;99163.94;4915844;29;20059;-81
2023/12/01 08:39:50;;;;;;;12.88;5.80;;;;;;;-0.02;83.94;99159.63;4928539;29;20126;-80
2023/12/01 08:42:18;;;;;;;12.85;5.95;;;;;;;-0.02;84.06;99159.63;4908749;29;20075;-80
2023/12/01 08:44:45;;;;;;;11.85;6.20;;;;;;;-0.02;83.95;99159.63;4944320;29;20047;-79
2023/12/01 08:47:13;;;;;;;13.50;5.68;;;;;;;-0.01;84.01;99162.22;4898608;29;20073;-80
2023/12/01 08:49:41;;;;;;;12.57;6.40;;;;;;;-0.01;83.94;99185.44;4916070;29;20044;-79
2023/12/01 08:52:08;;;;;;;10.50;5.90;;;;;;;0.02;83.79;99188.91;4918264;29;20055;-80
2023/12/01 08:54:35;;;;;;;15.48;6.35;;;;;;;-0.01;83.87;99187.16;4924936;29;20149;-80
2023/12/01 08:57:02;;;;;;;12.60;6.70;;;;;;;0.05;83.81;99191.50;4920666;29;20052;-79
2023/12/01 08:59:28;;;;;;;11.07;5.55;;;;;;;0.06;83.73;99198.38;4934898;28;20047;-81
2023/12/01 09:01:55;;;;;;;12.32;6.28;;;;;;;0.09;83.67;99198.41;4936392;29;20056;-80
2023/12/01 09:04:22;;;;;;;11.45;5.90;;;;;;;-0.02;82.99;99186.28;4921123;29;20059;-80
2023/12/01 09:06:49;;;;;;;10.38;6.05;;;;;;;0.03;82.85;99172.56;4923950;29;20051;-81
2023/12/01 09:09:15;;;;;;;12.18;6.05;;;;;;;0.07;82.82;99174.31;4917892;29;20063;-80
2023/12/01 09:11:42;;;;;;;13.20;6.28;;;;;;;0.05;83.00;99166.56;4906368;29;20043;-79
2023/12/01 09:14:09;;;;;;;11.32;5.97;;;;;;;0.09;83.05;99175.19;4929540;29;20051;-80
2023/12/01 09:16:36;;;;;;;13.57;6.38;;;;;;;0.09;82.63;99175.19;4928601;29;20047;-79
2023/12/01 09:19:02;;;;;;;12.25;6.10;;;;;;;0.10;82.52;99180.38;4914827;29;20059;-79
2023/12/01 09:21:32;;;;;;;12.82;6.20;;;;;;;0.09;82.85;99168.31;4911015;29;20138;-80
2023/12/01 09:23:59;;;;;;;11.75;6.03;;;;;;;0.12;82.82;99172.63;4926114;29;20051;-79
2023/12/01 09:26:28;;;;;;;11.18;6.07;;;;;;;0.05;82.17;99165.72;4934279;29;20059;-79
2023/12/01 09:28:55;;;;;;;11.98;6.25;;;;;;;0.04;82.29;99175.13;4920596;29;20107;-79
2023/12/01 09:31:22;;;;;;;12.63;6.53;;;;;;;0.08;82.78;99176.03;4909141;29;20509;-80
2023/12/01 09:33:49;;;;;;;14.07;6.95;;;;;;;0.11;82.74;99178.66;4924852;29;20138;-80
2023/12/01 09:36:17;;;;;;;14.05;7.13;;;;;;;0.10;82.56;99179.50;4933300;29;20064;-80
2023/12/01 09:38:44;;;;;;;14.18;6.65;;;;;;;0.17;82.84;99189.00;4886641;29;20048;-80
2023/12/01 09:41:11;;;;;;;15.85;6.90;;;;;;;0.19;82.80;99191.59;4917501;29;20138;-81
2023/12/01 09:43:40;;;;;;;21.02;9.43;;;;;;;0.17;82.70;99202.78;4925193;29;20058;-80
2023/12/01 09:46:07;;;;;;;16.98;7.43;;;;;;;0.15;82.21;99199.31;4884398;29;20056;-80
2023/12/01 09:48:34;;;;;;;13.00;6.65;;;;;;;0.13;82.19;99202.72;4909713;29;20055;-79
2023/12/01 09:51:03;;;;;;;14.13;6.53;;;;;;;0.18;82.15;99208.78;4925598;29;20087;-80
2023/12/01 09:53:30;;;;;;;13.20;6.70;;;;;;;0.20;82.08;99212.22;4932175;29;20134;-80
2023/12/01 09:55:58;;;;;;;12.57;6.40;;;;;;;0.25;82.23;99210.56;4912440;29;20044;-80
2023/12/01 09:58:26;;;;;;;14.23;6.30;;;;;;;0.26;82.47;99216.59;4912785;29;20055;-80
2023/12/01 10:00:53;;;;;;;12.43;6.30;;;;;;;0.28;82.25;99209.72;4911262;29;20098;-79
2023/12/01 10:03:20;;;;;;;13.75;6.93;;;;;;;0.28;82.36;99205.41;4906335;29;20107;-80
2023/12/01 10:05:47;;;;;;;13.43;6.45;;;;;;;0.24;81.99;99201.09;4915335;29;20079;-81
2023/12/01 10:08:16;;;;;;;12.52;6.22;;;;;;;0.24;81.91;99198.50;4919326;29;20255;-79
2023/12/01 10:10:44;;;;;;;14.40;6.90;;;;;;;0.29;82.27;99191.69;4929928;29;20059;-80
2023/12/01 10:13:11;;;;;;;14.13;7.10;;;;;;;0.38;82.42;99188.28;4929421;29;20138;-80
2023/12/01 10:15:40;;;;;;;13.00;6.53;;;;;;;0.41;82.31;99187.44;4915177;29;20074;-80
2023/12/01 10:18:12;;;;;;;13.32;6.80;;;;;;;0.42;81.68;99186.56;4932213;29;20066;-80
2023/12/01 10:21:07;;;;;;;16.10;7.32;;;;;;;0.44;82.17;99190.03;4918463;29;20055;-78
2023/12/01 10:23:36;;;;;;;15.10;7.28;;;;;;;0.46;82.03;99183.16;4916269;29;20047;-80
2023/12/01 10:26:04;;;;;;;14.15;6.43;;;;;;;0.41;81.85;99180.56;4925040;29;20052;-80
2023/12/01 10:28:41;;;;;;;13.05;7.35;;;;;;;0.45;82.25;99176.25;4934064;29;20051;-80
2023/12/01 10:31:09;;;;;;;12.77;6.93;;;;;;;0.40;82.08;99163.34;4927683;29;20111;-79
2023/12/01 10:33:37;;;;;;;16.05;7.70;;;;;;;0.47;81.92;99161.66;4936535;29;20116;-80
2023/12/01 10:36:05;;;;;;;15.43;7.28;;;;;;;0.48;81.93;99165.97;4887978;29;20131;-79
2023/12/01 10:38:36;;;;;;;13.70;6.93;;;;;;;0.54;82.44;99171.16;4918684;29;20051;-79
2023/12/01 10:41:04;;;;;;;12.90;6.63;;;;;;;0.49;81.93;99178.91;4908461;29;20051;-79
2023/12/01 10:43:32;;;;;;;14.52;7.15;;;;;;;0.44;81.97;99190.03;4915653;29;20485;-78
2023/12/01 10:46:03;;;;;;;18.88;7.20;;;;;;;0.55;82.58;99175.47;4926319;29;20063;-80
2023/12/01 10:48:32;;;;;;;16.08;7.93;;;;;;;0.61;82.24;99164.28;4934560;29;20062;-79
2023/12/01 10:51:01;;;;;;;15.75;7.28;;;;;;;0.66;82.18;99155.72;4922761;29;20047;-77
2023/12/01 10:53:28;;;;;;;14.25;7.43;;;;;;;0.71;82.29;99155.75;4936837;29;20086;-79
2023/12/01 10:55:56;;;;;;;15.65;7.60;;;;;;;0.69;82.12;99157.47;4932721;29;20051;-78
2023/12/01 10:58:25;;;;;;;16.25;8.27;;;;;;;0.72;82.19;99165.22;4913308;29;20055;-79
2023/12/01 11:00:53;;;;;;;16.00;7.80;;;;;;;0.73;82.40;99189.34;4910395;29;20059;-80
2023/12/01 11:03:22;;;;;;;15.73;8.18;;;;;;;0.60;82.11;99184.09;4929269;29;20057;-79
2023/12/01 11:05:52;;;;;;;19.02;8.40;;;;;;;0.57;82.37;99165.16;4899880;29;20107;-80
2023/12/01 11:08:49;;;;;;;16.05;7.95;;;;;;;0.56;82.05;99172.03;4902011;29;20083;-80
2023/12/01 11:11:52;;;;;;;17.92;8.45;;;;;;;0.57;82.08;99171.19;4904843;29;20062;-81
2023/12/01 11:14:25;;;;;;;14.68;7.95;;;;;;;0.63;82.35;99166.03;4928679;29;20055;-81
2023/12/01 11:16:52;;;;;;;17.80;8.63;;;;;;;0.57;82.39;99170.31;4932672;29;20052;-81
2023/12/01 11:19:23;;;;;;;17.83;8.23;;;;;;;0.47;82.09;99169.41;4904233;29;20114;-80
2023/12/01 11:21:56;;;;;;;18.45;8.85;;;;;;;0.50;82.07;99159.09;4933466;29;20055;-80
2023/12/01 11:24:31;;;;;;;16.70;8.27;;;;;;;0.51;82.06;99146.19;4916198;29;20047;-81
2023/12/01 11:27:03;;;;;;;20.70;8.13;;;;;;;0.53;82.65;99138.44;4911403;29;20051;-79
2023/12/01 11:29:35;;;;;;;17.98;8.65;;;;;;;0.57;82.85;99134.19;4937729;29;20055;-81
2023/12/01 11:32:03;;;;;;;17.88;8.30;;;;;;;0.51;82.86;99135.00;4920217;29;20051;-80